createdAt,value
2018-06-03T00:00:12.805Z,11.20
2018-06-03T00:05:15.530Z,10.57
2018-06-03T00:10:18.907Z,10.07
2018-06-03T00:15:21.493Z,10.90
2018-06-03T00:20:45.899Z,10.30
2018-06-03T00:25:48.531Z,10.67
2018-06-03T00:30:51.054Z,10.63
2018-06-03T00:36:06.252Z,11.03
2018-06-03T00:41:08.843Z,10.80
2018-06-03T00:46:12.311Z,10.80
2018-06-03T00:51:15.042Z,11.13
2018-06-03T00:56:29.417Z,11.17
2018-06-03T01:01:33.378Z,10.67
2018-06-03T01:06:36.228Z,9.47
2018-06-03T01:11:38.799Z,10.90
2018-06-03T01:16:41.382Z,9.97
2018-06-03T01:21:44.020Z,9.70
2018-06-03T01:26:46.703Z,10.33
2018-06-03T01:31:49.272Z,10.03
2018-06-03T01:36:51.814Z,10.23
2018-06-03T01:41:54.441Z,11.00
2018-06-03T01:46:56.973Z,11.00
2018-06-03T01:51:59.618Z,10.60
2018-06-03T01:57:02.218Z,11.40
2018-06-03T02:02:04.768Z,11.43
2018-06-03T02:07:07.498Z,9.80
2018-06-03T02:12:10.114Z,11.30
2018-06-03T02:17:12.748Z,9.73
2018-06-03T02:22:15.535Z,12.20
2018-06-03T02:27:18.185Z,10.77
2018-06-03T02:32:20.877Z,13.10
2018-06-03T02:37:23.860Z,11.70
2018-06-03T02:42:26.406Z,10.67
2018-06-03T02:47:28.944Z,11.17
2018-06-03T02:52:31.567Z,12.20
2018-06-03T02:57:34.097Z,11.37
2018-06-03T03:02:36.632Z,11.27
2018-06-03T03:07:39.165Z,10.80
2018-06-03T03:12:41.718Z,10.47
2018-06-03T03:17:44.247Z,11.53
2018-06-03T03:22:47.542Z,12.30
2018-06-03T03:27:50.174Z,11.53
2018-06-03T03:32:52.715Z,10.60
2018-06-03T03:37:55.435Z,10.47
2018-06-03T03:42:58.458Z,10.93
2018-06-03T03:48:01.767Z,12.87
2018-06-03T03:53:05.019Z,10.77
2018-06-03T03:58:07.769Z,10.10
2018-06-03T04:03:10.576Z,11.37
2018-06-03T04:08:13.123Z,11.53
2018-06-03T04:13:15.672Z,14.67
2018-06-03T04:18:18.969Z,13.60
2018-06-03T04:23:21.559Z,13.00
2018-06-03T04:28:24.188Z,14.23
2018-06-03T04:33:54.567Z,14.00
2018-06-03T04:38:57.845Z,13.53
2018-06-03T04:44:01.067Z,14.73
2018-06-03T04:49:04.577Z,12.27
2018-06-03T04:54:07.782Z,12.27
2018-06-03T04:59:10.995Z,11.87
2018-06-03T05:04:14.301Z,9.63
2018-06-03T05:09:17.558Z,10.33
2018-06-03T05:14:20.800Z,11.20
2018-06-03T05:19:24.285Z,13.13
2018-06-03T05:24:28.155Z,10.93
2018-06-03T05:29:31.618Z,10.37
2018-06-03T05:34:34.868Z,9.80
2018-06-03T05:39:38.048Z,14.10
2018-06-03T05:44:41.300Z,10.70
2018-06-03T05:49:44.624Z,10.43
2018-06-03T05:54:47.923Z,10.10
2018-06-03T05:59:51.173Z,11.20
2018-06-03T06:04:55.298Z,10.40
2018-06-03T06:09:58.604Z,9.73
2018-06-03T06:15:01.944Z,11.20
2018-06-03T06:20:06.116Z,10.63
2018-06-03T06:25:09.480Z,10.00
2018-06-03T06:30:13.782Z,12.07
2018-06-03T06:35:18.580Z,10.50
2018-06-03T06:40:21.852Z,11.10
2018-06-03T06:45:25.092Z,11.17
2018-06-03T06:50:28.657Z,10.67
2018-06-03T06:55:32.800Z,14.30
2018-06-03T07:00:36.025Z,10.73
2018-06-03T07:05:39.382Z,10.80
2018-06-03T07:10:43.115Z,11.70
2018-06-03T07:15:46.643Z,12.67
2018-06-03T07:20:50.235Z,12.33
2018-06-03T07:25:53.619Z,10.80
2018-06-03T07:30:56.895Z,10.90
2018-06-03T07:36:00.143Z,12.30
2018-06-03T07:41:03.456Z,12.27
2018-06-03T07:46:06.875Z,11.20
2018-06-03T07:51:10.183Z,11.70
2018-06-03T07:56:13.537Z,13.60
2018-06-03T08:01:16.861Z,13.50
2018-06-03T08:06:20.113Z,11.30
2018-06-03T08:11:24.367Z,13.50
2018-06-03T08:16:27.715Z,12.17
2018-06-03T08:21:31.047Z,11.10
2018-06-03T08:26:34.271Z,9.90
2018-06-03T08:31:37.643Z,10.03
2018-06-03T08:36:41.213Z,12.87
2018-06-03T08:41:44.458Z,10.30
2018-06-03T08:46:47.779Z,9.90
2018-06-03T08:51:51.257Z,10.63
2018-06-03T08:56:54.849Z,12.93
2018-06-03T09:01:58.119Z,10.50
2018-06-03T09:07:01.916Z,11.07
2018-06-03T09:12:05.396Z,9.70
2018-06-03T09:17:08.629Z,10.53
2018-06-03T09:22:11.946Z,9.20
2018-06-03T09:27:15.616Z,10.73
2018-06-03T09:32:19.030Z,10.77
2018-06-03T09:37:23.056Z,13.70
2018-06-03T09:42:26.442Z,12.20
2018-06-03T09:47:29.757Z,12.93
2018-06-03T09:52:33.363Z,12.03
2018-06-03T09:57:36.589Z,12.50
2018-06-03T10:02:39.969Z,11.50
2018-06-03T10:07:43.855Z,12.30
2018-06-03T10:12:47.124Z,10.77
2018-06-03T10:17:50.418Z,11.20
2018-06-03T10:22:53.843Z,12.07
2018-06-03T10:27:57.169Z,11.97
2018-06-03T10:33:00.423Z,11.27
2018-06-03T10:38:03.748Z,10.40
2018-06-03T10:43:07.080Z,14.10
2018-06-03T10:48:10.554Z,10.30
2018-06-03T10:53:13.773Z,13.73
2018-06-03T10:58:17.095Z,10.87
2018-06-03T11:03:20.728Z,12.40
2018-06-03T11:08:24.020Z,15.43
2018-06-03T11:13:27.431Z,11.77
2018-06-03T11:18:30.771Z,11.23
2018-06-03T11:23:34.030Z,11.67
2018-06-03T11:28:37.467Z,12.53
2018-06-03T11:33:40.719Z,14.43
2018-06-03T11:38:44.149Z,14.40
2018-06-03T11:43:47.516Z,15.27
2018-06-03T11:48:50.742Z,11.60
2018-06-03T11:53:54.022Z,10.77
2018-06-03T11:59:07.583Z,11.17
2018-06-03T12:04:10.824Z,10.90
2018-06-03T12:09:14.260Z,11.90
2018-06-03T12:14:17.597Z,11.20
2018-06-03T12:19:20.858Z,10.23
2018-06-03T12:24:24.359Z,10.40
2018-06-03T12:29:28.181Z,11.73
2018-06-03T12:34:31.432Z,9.97
2018-06-03T12:39:34.792Z,9.63
2018-06-03T12:44:38.049Z,10.30
2018-06-03T12:49:41.296Z,9.67
2018-06-03T12:54:44.546Z,10.03
2018-06-03T12:59:47.897Z,10.57
2018-06-03T13:04:51.865Z,9.73
2018-06-03T13:09:55.324Z,9.77
2018-06-03T13:14:58.757Z,8.40
2018-06-03T13:20:02.001Z,10.80
2018-06-03T13:25:05.288Z,10.63
2018-06-03T13:30:08.600Z,9.30
2018-06-03T13:35:12.304Z,9.80
2018-06-03T13:40:15.632Z,9.57
2018-06-03T13:45:18.879Z,8.80
2018-06-03T13:50:22.256Z,10.63
2018-06-03T13:55:25.467Z,9.27
2018-06-03T14:00:28.736Z,9.83
2018-06-03T14:05:32.012Z,9.03
2018-06-03T14:10:35.422Z,8.43
2018-06-03T14:15:39.249Z,8.47
2018-06-03T14:20:42.514Z,8.47
2018-06-03T14:25:45.735Z,8.50
2018-06-03T14:30:49.481Z,8.67
2018-06-03T14:35:52.736Z,8.53
2018-06-03T14:40:55.995Z,9.70
2018-06-03T14:46:00.081Z,8.77
2018-06-03T14:51:03.602Z,8.47
2018-06-03T14:56:06.954Z,9.07
2018-06-03T15:01:10.290Z,8.77
2018-06-03T15:06:13.559Z,9.40
2018-06-03T15:11:16.898Z,8.43
2018-06-03T15:16:20.260Z,8.03
2018-06-03T15:21:23.510Z,8.57
2018-06-03T15:26:26.850Z,7.70
2018-06-03T15:31:30.084Z,8.67
2018-06-03T15:36:33.318Z,8.43
2018-06-03T15:41:36.768Z,7.33
2018-06-03T15:46:39.961Z,8.63
2018-06-03T15:51:43.576Z,8.40
2018-06-03T15:56:46.931Z,6.97
2018-06-03T16:01:50.176Z,7.57
2018-06-03T16:06:53.402Z,8.13
2018-06-03T16:11:56.781Z,8.30
2018-06-03T16:17:00.016Z,8.20
2018-06-03T16:22:03.612Z,7.67
2018-06-03T16:27:06.861Z,7.80
2018-06-03T16:32:16.396Z,8.07
2018-06-03T16:37:20.191Z,7.90
2018-06-03T16:42:23.642Z,8.80
2018-06-03T16:47:27.217Z,7.70
2018-06-03T16:52:30.489Z,8.10
2018-06-03T16:57:33.986Z,7.57
2018-06-03T17:02:37.331Z,8.17
2018-06-03T17:07:40.630Z,8.47
2018-06-03T17:12:44.187Z,7.23
2018-06-03T17:17:47.608Z,7.67
2018-06-03T17:22:50.989Z,7.37
2018-06-03T17:27:54.232Z,8.37
2018-06-03T17:32:58.407Z,9.10
2018-06-03T17:38:01.904Z,8.30
2018-06-03T17:43:05.293Z,8.73
2018-06-03T17:48:08.635Z,7.23
2018-06-03T17:53:11.922Z,8.40
2018-06-03T17:58:15.170Z,7.97
2018-06-03T18:03:18.366Z,7.40
2018-06-03T18:08:21.706Z,8.23
2018-06-03T18:13:24.990Z,7.33
2018-06-03T18:18:28.360Z,8.33
2018-06-03T18:23:31.776Z,7.90
2018-06-03T18:28:35.058Z,7.83
2018-06-03T18:33:38.360Z,8.23
2018-06-03T18:38:41.711Z,8.13
2018-06-03T18:43:45.317Z,7.03
2018-06-03T18:48:48.536Z,8.10
2018-06-03T18:53:52.036Z,8.30
2018-06-03T18:58:55.682Z,8.97
2018-06-03T19:03:58.957Z,8.27
2018-06-03T19:09:02.222Z,7.80
2018-06-03T19:14:05.477Z,7.63
2018-06-03T19:19:08.682Z,8.00
2018-06-03T19:24:12.208Z,7.60
2018-06-03T19:29:15.405Z,7.00
2018-06-03T19:34:18.768Z,7.10
2018-06-03T19:39:22.016Z,7.27
2018-06-03T19:44:25.582Z,7.33
2018-06-03T19:49:28.904Z,6.73
2018-06-03T19:54:32.251Z,7.40
2018-06-03T19:59:35.589Z,7.10
2018-06-03T20:04:39.132Z,7.00
2018-06-03T20:09:42.554Z,7.77
2018-06-03T20:14:45.860Z,6.53
2018-06-03T20:19:49.161Z,7.10
2018-06-03T20:24:52.432Z,6.83
2018-06-03T20:29:55.778Z,7.20
2018-06-03T20:35:00.249Z,6.93
2018-06-03T20:40:03.716Z,7.23
2018-06-03T20:45:06.997Z,6.93
2018-06-03T20:50:11.026Z,7.10
2018-06-03T20:55:14.927Z,6.90
2018-06-03T21:00:19.491Z,8.47
2018-06-03T21:05:23.066Z,7.33
2018-06-03T21:10:26.315Z,7.20
2018-06-03T21:15:29.629Z,8.50
2018-06-03T21:20:32.886Z,7.10
2018-06-03T21:25:36.148Z,6.87
2018-06-03T21:30:39.377Z,7.87
2018-06-03T21:35:42.773Z,7.10
2018-06-03T21:40:46.041Z,6.40
2018-06-03T21:45:49.554Z,6.83
2018-06-03T21:50:52.793Z,7.37
2018-06-03T21:55:56.075Z,7.70
2018-06-03T22:00:59.426Z,7.37
2018-06-03T22:06:02.980Z,7.67
2018-06-03T22:11:06.555Z,7.27
2018-06-03T22:16:10.005Z,6.50
2018-06-03T22:21:13.302Z,6.90
2018-06-03T22:26:16.587Z,7.33
2018-06-03T22:31:20.157Z,7.20
2018-06-03T22:36:23.760Z,6.77
2018-06-03T22:41:27.053Z,6.60
2018-06-03T22:46:30.353Z,8.63
2018-06-03T22:51:33.618Z,7.30
2018-06-03T22:56:48.299Z,7.73
2018-06-03T23:01:52.113Z,7.90
2018-06-03T23:06:55.429Z,7.83
2018-06-03T23:11:58.975Z,8.77
2018-06-03T23:17:02.448Z,7.67
2018-06-03T23:22:05.659Z,7.30
2018-06-03T23:27:09.088Z,7.80
2018-06-03T23:32:12.408Z,7.10
2018-06-03T23:37:15.639Z,8.13
2018-06-03T23:42:18.894Z,7.23
2018-06-03T23:47:22.176Z,7.07
2018-06-03T23:52:25.411Z,7.30
2018-06-03T23:57:29.434Z,7.30
